Terminal Aerodrome Forecast
Issued by NWS

Home | Current Version | Previous Version | Text Only | Print | Product List | Glossary On
Versions: 1 2 3 4 5 6 7 8 9 10 11 12 13 14 15 16 17 18 19 20 21 22 23 24
000
FTUS41 KBTV 231700
TAFPBG
TAF
KPBG 231736Z 2318/2418 32008KT P6SM VCSH BKN050 OVC080
      TEMPO 2318/2320 1SM TSRA BR BKN020CB
     FM232000 31010G18KT P6SM BKN040
     FM240200 35008KT P6SM SCT025 BKN050
     FM241200 33010KT P6SM SCT060=

USA.gov is the U.S. government's official web portal to all federal, state and local government web resources and services.